createdAt,value
2023-02-15T00:03:10.348Z,33.10
2023-02-15T00:08:32.345Z,33.67
2023-02-15T00:13:52.954Z,24.17
2023-02-15T00:19:15.808Z,33.70
2023-02-15T00:24:36.776Z,39.15
2023-02-15T00:29:57.462Z,37.80
2023-02-15T00:35:18.047Z,34.83
2023-02-15T00:40:38.843Z,39.97
2023-02-15T00:46:00.882Z,40.35
2023-02-15T00:51:21.710Z,52.30
2023-02-15T00:56:42.371Z,32.70
2023-02-15T01:02:04.148Z,37.22
2023-02-15T01:07:24.772Z,40.65
2023-02-15T01:12:47.051Z,36.53
2023-02-15T01:18:07.791Z,35.92
2023-02-15T01:23:28.547Z,32.10
2023-02-15T01:28:49.218Z,31.20
2023-02-15T01:34:10.959Z,32.38
2023-02-15T01:39:33.238Z,32.17
2023-02-15T01:44:59.511Z,30.27
2023-02-15T01:50:25.012Z,30.23
2023-02-15T01:56:00.083Z,38.35
2023-02-15T02:01:21.009Z,33.22
2023-02-15T02:06:42.219Z,34.90
2023-02-15T02:12:03.510Z,33.08
2023-02-15T02:17:43.272Z,32.65
2023-02-15T02:23:13.938Z,30.58
2023-02-15T02:28:43.808Z,32.38
2023-02-15T02:34:21.587Z,32.05
2023-02-15T02:39:55.985Z,32.90
2023-02-15T02:45:21.070Z,37.50
2023-02-15T02:50:43.666Z,21.67
2023-02-15T02:56:08.383Z,30.23
2023-02-15T03:01:42.370Z,35.08
2023-02-15T03:07:10.891Z,34.25
2023-02-15T03:12:41.195Z,36.63
2023-02-15T03:18:03.813Z,32.47
2023-02-15T03:23:26.672Z,33.92
2023-02-15T03:28:52.013Z,32.63
2023-02-15T03:34:15.221Z,34.08
2023-02-15T03:39:43.226Z,29.65
2023-02-15T03:45:12.319Z,30.73
2023-02-15T03:50:56.053Z,31.88
2023-02-15T03:56:16.769Z,24.25
2023-02-15T04:01:58.551Z,29.55
2023-02-15T04:07:19.642Z,32.35
2023-02-15T04:12:40.519Z,31.25
2023-02-15T04:18:04.249Z,33.53
2023-02-15T04:23:43.523Z,30.08
2023-02-15T04:29:04.155Z,32.88
2023-02-15T04:34:25.706Z,21.92
2023-02-15T04:39:46.551Z,32.67
2023-02-15T04:45:07.728Z,32.47
2023-02-15T04:50:28.371Z,29.17
2023-02-15T04:55:49.206Z,30.30
2023-02-15T05:01:10.119Z,30.00
2023-02-15T05:06:31.324Z,29.92
2023-02-15T05:11:52.102Z,32.63
2023-02-15T05:17:12.655Z,34.47
2023-02-15T05:22:33.471Z,29.15
2023-02-15T05:28:12.747Z,34.47
2023-02-15T05:33:34.499Z,41.53
2023-02-15T05:38:56.145Z,33.40
2023-02-15T05:44:17.126Z,39.33
2023-02-15T05:49:37.794Z,36.30
2023-02-15T05:54:59.123Z,26.98
2023-02-15T06:00:20.318Z,31.50
2023-02-15T06:05:41.384Z,37.42
2023-02-15T06:11:02.143Z,36.60
2023-02-15T06:16:23.134Z,30.95
2023-02-15T06:21:44.614Z,29.63
2023-02-15T06:27:05.533Z,36.70
2023-02-15T06:32:26.186Z,26.92
2023-02-15T06:37:47.715Z,32.42
2023-02-15T06:43:08.650Z,31.55
2023-02-15T06:48:29.414Z,23.25
2023-02-15T06:53:50.256Z,31.13
2023-02-15T06:59:10.959Z,29.80
2023-02-15T07:04:31.894Z,32.47
2023-02-15T07:09:52.595Z,34.20
2023-02-15T07:15:17.321Z,28.90
2023-02-15T07:20:38.610Z,29.13
2023-02-15T07:26:00.481Z,24.67
2023-02-15T07:31:21.493Z,29.88
2023-02-15T07:36:42.521Z,36.30
2023-02-15T07:42:03.252Z,32.85
2023-02-15T07:47:27.352Z,26.75
2023-02-15T07:52:48.314Z,29.90
2023-02-15T07:58:09.300Z,35.28
2023-02-15T08:03:30.260Z,32.67
2023-02-15T08:08:51.115Z,32.10
2023-02-15T08:14:14.301Z,33.78
2023-02-15T08:19:35.761Z,20.73
2023-02-15T08:24:56.719Z,28.42
2023-02-15T08:30:17.385Z,30.10
2023-02-15T08:35:38.425Z,23.73
2023-02-15T08:41:12.241Z,27.23
2023-02-15T08:46:38.506Z,33.15
2023-02-15T08:51:59.315Z,31.13
2023-02-15T08:57:20.019Z,29.10
2023-02-15T09:02:40.681Z,34.80
2023-02-15T09:08:01.383Z,38.28
2023-02-15T09:13:22.256Z,26.95
2023-02-15T09:18:42.864Z,27.17
2023-02-15T09:24:07.372Z,24.90
2023-02-15T09:29:28.177Z,28.92
2023-02-15T09:34:49.302Z,37.65
2023-02-15T09:40:15.661Z,27.42
2023-02-15T09:46:06.918Z,30.98
2023-02-15T09:52:05.267Z,23.20
2023-02-15T09:57:35.675Z,34.38
2023-02-15T10:08:39.874Z,32.83
2023-02-15T10:14:18.913Z,22.75
2023-02-15T10:20:00.136Z,29.35
2023-02-15T10:25:39.671Z,32.92
2023-02-15T10:31:45.098Z,32.95
2023-02-15T10:37:31.664Z,31.20
2023-02-15T10:42:55.810Z,24.02
2023-02-15T10:48:35.048Z,24.90
2023-02-15T10:54:15.056Z,32.43
2023-02-15T11:00:03.078Z,25.08
2023-02-15T11:05:42.441Z,29.90
2023-02-15T11:11:11.698Z,28.07
2023-02-15T11:16:41.756Z,29.10
2023-02-15T11:22:06.275Z,29.20
2023-02-15T11:27:34.256Z,29.77
2023-02-15T11:32:58.799Z,29.38
2023-02-15T11:38:26.821Z,28.33
2023-02-15T11:44:06.170Z,30.58
2023-02-15T11:49:33.590Z,28.70
2023-02-15T11:54:54.816Z,23.48
2023-02-15T12:00:25.851Z,34.08
2023-02-15T12:05:50.960Z,26.45
2023-02-15T12:11:20.799Z,27.35
2023-02-15T12:16:54.462Z,28.70
2023-02-15T12:22:29.725Z,31.45
2023-02-15T12:27:51.507Z,25.90
2023-02-15T12:33:22.355Z,22.08
2023-02-15T12:38:43.271Z,31.23
2023-02-15T12:44:26.977Z,22.38
2023-02-15T12:50:12.269Z,23.13
2023-02-15T12:55:33.530Z,22.65
2023-02-15T13:01:09.973Z,24.77
2023-02-15T13:06:36.691Z,15.43
2023-02-15T13:12:09.995Z,27.40
2023-02-15T13:17:35.553Z,22.80
2023-02-15T13:23:06.979Z,18.67
2023-02-15T13:28:59.437Z,26.50
2023-02-15T13:34:33.518Z,29.52
2023-02-15T13:40:02.710Z,29.65
2023-02-15T13:45:53.362Z,28.85
2023-02-15T13:51:21.217Z,29.30
2023-02-15T13:57:03.906Z,29.63
2023-02-15T14:02:38.970Z,25.55
2023-02-15T14:08:15.754Z,28.02
2023-02-15T14:14:07.744Z,26.60
2023-02-15T14:19:46.825Z,29.50
2023-02-15T14:25:18.433Z,23.73
2023-02-15T14:30:42.587Z,28.08
2023-02-15T14:36:07.302Z,24.25
2023-02-15T14:41:54.395Z,25.02
2023-02-15T14:47:26.853Z,29.48
2023-02-15T14:53:37.550Z,20.50
2023-02-15T14:59:20.510Z,28.97
2023-02-15T15:04:46.250Z,23.15
2023-02-15T15:10:27.573Z,25.45
2023-02-15T15:15:48.594Z,19.42
2023-02-15T15:21:09.884Z,25.17
2023-02-15T15:26:41.747Z,24.88
2023-02-15T15:32:03.452Z,28.08
2023-02-15T15:37:45.998Z,26.27
2023-02-15T15:43:22.170Z,25.58
2023-02-15T15:48:43.252Z,22.02
2023-02-15T15:54:04.949Z,24.88
2023-02-15T15:59:32.013Z,27.10
2023-02-15T16:04:52.905Z,26.17
2023-02-15T16:10:41.415Z,26.05
2023-02-15T16:16:02.897Z,32.85
2023-02-15T16:21:29.721Z,25.08
2023-02-15T16:27:08.686Z,27.85
2023-02-15T16:32:29.785Z,27.38
2023-02-15T16:37:50.523Z,25.58
2023-02-15T16:43:22.548Z,31.20
2023-02-15T16:48:47.996Z,36.38
2023-02-15T16:54:16.416Z,35.90
2023-02-15T16:59:44.431Z,35.60
2023-02-15T17:05:10.923Z,36.42
2023-02-15T17:10:36.471Z,46.75
2023-02-15T17:16:03.572Z,40.08
2023-02-15T17:21:29.476Z,40.92
2023-02-15T17:27:00.598Z,38.58
2023-02-15T17:32:27.257Z,40.88
2023-02-15T17:37:52.127Z,39.33
2023-02-15T17:43:12.950Z,38.33
2023-02-15T17:48:36.591Z,39.28
2023-02-15T17:54:15.943Z,41.15
2023-02-15T17:59:55.612Z,47.88
2023-02-15T18:05:35.598Z,44.33
2023-02-15T18:11:15.000Z,41.28
2023-02-15T18:16:43.436Z,37.83
2023-02-15T18:22:14.594Z,40.60
2023-02-15T18:27:35.178Z,41.22
2023-02-15T18:32:58.902Z,42.22
2023-02-15T18:38:22.238Z,44.40
2023-02-15T18:43:43.279Z,47.17
2023-02-15T18:49:05.277Z,45.45
2023-02-15T18:54:26.032Z,54.05
2023-02-15T18:59:46.796Z,70.25
2023-02-15T19:05:07.635Z,59.75
2023-02-15T19:10:31.517Z,47.35
2023-02-15T19:15:52.191Z,47.55
2023-02-15T19:21:18.609Z,65.85
2023-02-15T19:26:45.691Z,69.00
2023-02-15T19:32:06.899Z,65.90
2023-02-15T19:37:35.016Z,51.42
2023-02-15T19:42:56.358Z,49.00
2023-02-15T19:48:20.718Z,40.22
2023-02-15T19:53:41.715Z,35.78
2023-02-15T19:59:02.772Z,30.08
2023-02-15T20:04:25.129Z,33.47
2023-02-15T20:09:47.678Z,36.65
2023-02-15T20:15:30.042Z,27.95
2023-02-15T20:20:53.304Z,28.80
2023-02-15T20:26:18.477Z,32.38
2023-02-15T20:31:39.735Z,33.53
2023-02-15T20:37:01.122Z,34.75
2023-02-15T20:42:21.888Z,34.92
2023-02-15T20:47:44.469Z,30.45
2023-02-15T20:53:09.785Z,33.90
2023-02-15T20:58:30.679Z,34.60
2023-02-15T21:03:51.555Z,31.23
2023-02-15T21:09:16.805Z,25.13
2023-02-15T21:14:37.833Z,24.02
2023-02-15T21:19:58.959Z,25.17
2023-02-15T21:25:26.548Z,23.80
2023-02-15T21:30:48.916Z,21.77
2023-02-15T21:36:16.288Z,27.08
2023-02-15T21:41:55.730Z,20.75
2023-02-15T21:47:43.306Z,27.60
2023-02-15T21:53:05.998Z,20.00
2023-02-15T21:58:29.492Z,20.15
2023-02-15T22:03:52.346Z,21.25
2023-02-15T22:09:18.139Z,18.33
2023-02-15T22:14:41.714Z,22.48
2023-02-15T22:20:02.739Z,19.80
2023-02-15T22:25:25.187Z,18.35
2023-02-15T22:30:46.064Z,19.95
2023-02-15T22:36:07.180Z,12.68
2023-02-15T22:41:31.264Z,13.43
2023-02-15T22:46:53.151Z,18.92
2023-02-15T22:52:14.406Z,20.73
2023-02-15T22:57:35.553Z,12.15
2023-02-15T23:02:56.693Z,22.25
2023-02-15T23:08:17.827Z,18.92
2023-02-15T23:13:38.433Z,13.40
2023-02-15T23:18:59.269Z,15.85
2023-02-15T23:24:28.640Z,16.13
2023-02-15T23:29:49.683Z,13.82
2023-02-15T23:35:16.145Z,17.20
2023-02-15T23:40:55.565Z,15.70
2023-02-15T23:46:29.168Z,14.50
2023-02-15T23:51:52.438Z,19.85
2023-02-15T23:57:13.319Z,13.75
